Time;durP1;ratioP1;P1;durP2;ratioP2;P2;SDS_P1;SDS_P2;PMS_P1;PMS_P2;Temp;Humidity;BMP_temperature;BMP_pressure;BME280_temperature;BME280_humidity;BME280_pressure;Samples;Min_cycle;Max_cycle;Signal;HPM_P1;HPM_P2
2023/10/07 00:01:52;;;;;;;12.02;5.72;;;;;;;14.26;90.93;102058.22;5069421;28;20028;-59
2023/10/07 00:04:21;;;;;;;12.60;6.22;;;;;;;14.38;90.69;102061.13;5067253;28;20168;-58
2023/10/07 00:06:46;;;;;;;12.37;5.40;;;;;;;14.28;91.18;102061.69;5072596;28;20033;-58
2023/10/07 00:09:16;;;;;;;12.13;6.38;;;;;;;14.34;91.23;102055.09;5068219;28;20336;-59
2023/10/07 00:11:46;;;;;;;10.80;5.65;;;;;;;14.23;91.45;102034.31;5069547;28;20038;-58
2023/10/07 00:14:12;;;;;;;13.00;5.97;;;;;;;14.25;91.99;102034.25;5072699;28;20031;-58
2023/10/07 00:16:38;;;;;;;11.23;5.93;;;;;;;14.26;92.15;102027.94;5071038;28;20439;-58
2023/10/07 00:19:03;;;;;;;12.38;6.30;;;;;;;14.24;92.07;102030.72;5069358;28;20040;-58
2023/10/07 00:21:44;;;;;;;10.68;6.00;;;;;;;14.13;92.66;102038.50;5071097;28;20024;-59
2023/10/07 00:24:15;;;;;;;12.40;6.15;;;;;;;14.20;92.51;102039.00;5068343;28;20107;-58
2023/10/07 00:26:40;;;;;;;10.75;5.47;;;;;;;14.20;92.82;102047.03;5067100;28;20024;-59
2023/10/07 00:29:07;;;;;;;6.93;3.85;;;;;;;14.31;92.30;102031.19;5068204;28;20073;-59
2023/10/07 00:31:34;;;;;;;11.50;5.53;;;;;;;14.18;92.61;102024.88;5067947;28;20394;-58
2023/10/07 00:34:05;;;;;;;7.97;5.55;;;;;;;14.26;92.89;102034.13;5066247;28;20115;-58
2023/10/07 00:39:07;;;;;;;14.98;7.03;;;;;;;14.14;93.75;102042.91;5068002;28;20042;-58
2023/10/07 00:41:54;;;;;;;11.70;6.40;;;;;;;14.21;93.36;102036.25;5068812;28;20025;-58
2023/10/07 00:44:23;;;;;;;13.10;7.30;;;;;;;14.18;93.88;102036.44;5067845;28;20020;-58
2023/10/07 00:49:41;;;;;;;14.55;7.13;;;;;;;14.12;94.63;102035.91;5070307;28;20035;-58
2023/10/07 00:52:29;;;;;;;10.32;6.70;;;;;;;14.09;95.06;102037.84;5068437;28;20166;-58
2023/10/07 01:00:55;;;;;;;12.85;7.18;;;;;;;14.08;95.45;102033.41;5071095;28;20070;-58
2023/10/07 01:03:08;;;;;;;11.18;5.20;;;;;;;14.23;94.77;102022.75;5053866;28;20075;-58
2023/10/07 01:05:35;;;;;;;11.13;4.43;;;;;;;14.19;94.84;102019.41;5068916;28;20048;-58
2023/10/07 01:08:06;;;;;;;11.50;7.22;;;;;;;14.12;95.57;102023.41;5052634;28;20032;-59
2023/10/07 01:10:31;;;;;;;11.38;6.82;;;;;;;14.14;95.71;102004.59;5068977;28;20047;-58
2023/10/07 01:13:03;;;;;;;11.25;7.03;;;;;;;14.11;95.87;102002.94;5069312;28;20052;-58
2023/10/07 01:15:30;;;;;;;18.20;7.78;;;;;;;14.05;96.45;102006.00;5066926;28;20048;-58
2023/10/07 01:18:05;;;;;;;17.85;7.60;;;;;;;14.06;96.77;102021.97;5067426;28;20027;-58
2023/10/07 01:20:58;;;;;;;16.45;8.60;;;;;;;14.00;97.16;102016.09;5070001;28;20584;-58
2023/10/07 01:23:32;;;;;;;17.58;8.23;;;;;;;14.07;97.11;102025.50;5070141;28;20395;-58
2023/10/07 01:25:59;;;;;;;13.32;5.43;;;;;;;14.13;96.40;102032.31;5069352;28;20021;-58
2023/10/07 01:28:26;;;;;;;14.55;9.63;;;;;;;14.02;97.21;102035.59;5067530;28;20024;-58
2023/10/07 01:31:07;;;;;;;15.43;10.70;;;;;;;14.06;97.24;102035.34;5068459;28;20024;-58
2023/10/07 01:33:41;;;;;;;14.30;10.55;;;;;;;14.00;97.79;102029.47;5069977;28;20383;-58
2023/10/07 01:38:44;;;;;;;13.57;10.27;;;;;;;14.01;97.86;102028.53;5068938;28;20036;-59
2023/10/07 01:41:18;;;;;;;14.95;10.13;;;;;;;13.98;98.64;102016.19;5069074;28;20523;-59
2023/10/07 01:46:26;;;;;;;17.98;11.27;;;;;;;13.94;99.07;102021.81;5068025;28;20352;-58
2023/10/07 01:48:57;;;;;;;17.08;12.95;;;;;;;13.93;99.42;102018.28;5067568;28;20083;-58
2023/10/07 01:51:26;;;;;;;16.85;11.77;;;;;;;13.92;99.40;102005.88;5068250;28;20065;-58
2023/10/07 01:53:56;;;;;;;19.35;11.95;;;;;;;13.96;99.88;102011.88;5068042;28;20024;-58
2023/10/07 01:56:21;;;;;;;;;;;;;;;14.09;98.36;102015.56;5071227;28;20055;-58
2023/10/07 01:58:47;;;;;;;20.10;11.70;;;;;;;13.99;99.80;102017.06;5070217;28;20372;-58
2023/10/07 02:01:16;;;;;;;21.45;13.35;;;;;;;14.01;100.00;102010.66;5067893;28;20467;-58
2023/10/07 02:03:44;;;;;;;17.73;11.52;;;;;;;14.07;100.00;102018.34;5070548;28;20108;-58
2023/10/07 02:06:09;;;;;;;18.80;12.45;;;;;;;14.02;100.00;102009.69;5068148;28;20036;-58
2023/10/07 02:08:37;;;;;;;20.33;13.15;;;;;;;14.08;100.00;102016.50;5069355;28;20024;-59
2023/10/07 02:11:05;;;;;;;16.88;13.07;;;;;;;14.03;100.00;101998.06;5068952;28;20036;-58
2023/10/07 02:13:31;;;;;;;16.95;12.98;;;;;;;14.15;100.00;102020.56;5074030;28;20024;-58
2023/10/07 02:15:57;;;;;;;19.45;12.85;;;;;;;14.09;100.00;102010.22;5074316;28;20861;-58
2023/10/07 02:18:27;;;;;;;18.52;13.23;;;;;;;14.09;100.00;102004.88;5070475;28;20047;-59
2023/10/07 02:20:53;;;;;;;;;;;;;;;14.21;100.00;102003.28;5069926;28;20503;-58
2023/10/07 02:23:37;;;;;;;13.15;8.00;;;;;;;14.22;100.00;102010.34;5069953;28;19912;-58
2023/10/07 02:26:05;;;;;;;13.90;8.23;;;;;;;14.17;100.00;101999.91;5074004;28;20487;-58
2023/10/07 02:28:33;;;;;;;22.90;14.80;;;;;;;14.07;100.00;102014.81;5073929;28;20056;-58
2023/10/07 02:31:02;;;;;;;19.70;14.38;;;;;;;14.15;100.00;102017.88;5072661;28;20369;-58
2023/10/07 02:33:29;;;;;;;;;;;;;;;14.26;100.00;102015.41;5072438;28;20052;-58
2023/10/07 02:35:57;;;;;;;23.73;16.10;;;;;;;14.22;100.00;101994.28;5070020;28;19958;-58
2023/10/07 02:38:35;;;;;;;23.27;16.08;;;;;;;14.23;100.00;102010.25;5069385;28;20490;-58
2023/10/07 02:41:07;;;;;;;22.65;17.23;;;;;;;14.15;100.00;102001.84;5072042;28;20040;-58
2023/10/07 02:43:34;;;;;;;23.10;16.50;;;;;;;14.24;100.00;102014.66;5069354;28;20013;-58
2023/10/07 02:46:02;;;;;;;23.15;18.08;;;;;;;14.24;100.00;102021.84;5069653;28;20380;-58
2023/10/07 02:48:34;;;;;;;25.08;17.90;;;;;;;14.22;100.00;102005.84;5072592;28;20055;-58
2023/10/07 02:51:06;;;;;;;22.10;17.13;;;;;;;14.29;100.00;102011.69;5071588;28;20537;-58
2023/10/07 02:53:35;;;;;;;23.67;18.23;;;;;;;14.27;100.00;102009.13;5071809;28;20517;-58
2023/10/07 02:56:16;;;;;;;26.23;19.17;;;;;;;14.23;100.00;102012.91;5069938;28;20035;-58
2023/10/07 02:58:51;;;;;;;23.38;18.92;;;;;;;14.26;100.00;102009.19;5072691;28;20041;-58
2023/10/07 03:01:25;;;;;;;24.38;19.00;;;;;;;14.25;100.00;102004.81;5069123;28;20182;-58
2023/10/07 03:03:51;;;;;;;26.42;18.92;;;;;;;14.29;100.00;102017.03;5083357;28;20028;-58
2023/10/07 03:06:19;;;;;;;27.73;20.13;;;;;;;14.32;100.00;102016.84;5071117;28;20016;-58
2023/10/07 03:11:11;;;;;;;25.05;20.52;;;;;;;14.33;100.00;102018.59;5069869;28;20032;-58
2023/10/07 03:13:49;;;;;;;28.42;20.45;;;;;;;14.27;100.00;102011.81;5070867;28;20037;-58
2023/10/07 03:19:06;;;;;;;27.98;20.50;;;;;;;14.37;100.00;102011.25;5071459;28;20427;-58
2023/10/07 03:24:11;;;;;;;25.33;19.63;;;;;;;14.44;100.00;102028.63;5068266;28;20051;-58
2023/10/07 03:26:53;;;;;;;27.70;20.50;;;;;;;14.41;100.00;102005.63;5071624;28;20077;-58
2023/10/07 03:29:36;;;;;;;26.98;20.30;;;;;;;14.41;100.00;102004.75;5071726;28;20115;-58
2023/10/07 03:32:07;;;;;;;25.75;21.05;;;;;;;14.44;100.00;101996.53;5073189;28;20082;-58
2023/10/07 03:34:36;;;;;;;31.85;20.23;;;;;;;14.45;100.00;102008.97;5070634;28;20187;-58
2023/10/07 03:39:56;;;;;;;30.20;20.77;;;;;;;14.48;100.00;101996.25;5073131;28;20039;-58
2023/10/07 03:42:23;;;;;;;31.50;21.17;;;;;;;14.49;100.00;102002.47;5071785;28;20029;-58
2023/10/07 03:44:49;;;;;;;29.52;22.55;;;;;;;14.52;100.00;101997.81;5073545;28;20021;-58
2023/10/07 03:47:15;;;;;;;31.42;23.15;;;;;;;14.50;100.00;101994.34;5070894;28;20074;-58
2023/10/07 03:49:41;;;;;;;27.95;22.05;;;;;;;14.52;100.00;102000.47;5067260;28;20387;-58
2023/10/07 03:52:19;;;;;;;27.80;22.70;;;;;;;14.50;100.00;101972.94;5070043;28;20039;-58
2023/10/07 03:54:48;;;;;;;30.75;23.55;;;;;;;14.52;100.00;101979.06;5069597;28;20037;-58
2023/10/07 03:57:18;;;;;;;28.70;23.38;;;;;;;14.59;100.00;101981.38;5068679;28;20028;-58
2023/10/07 03:59:46;;;;;;;32.42;23.67;;;;;;;14.53;100.00;101975.47;5069767;28;20494;-58
2023/10/07 04:02:35;;;;;;;23.17;12.10;;;;;;;14.62;100.00;101981.16;5069571;28;20483;-58
2023/10/07 04:05:13;;;;;;;28.55;20.38;;;;;;;14.61;100.00;101968.75;5068999;28;20012;-58
2023/10/07 04:07:39;;;;;;;32.22;22.65;;;;;;;14.58;100.00;101975.16;5070404;28;20074;-58
2023/10/07 04:12:49;;;;;;;30.17;21.98;;;;;;;14.57;100.00;101959.19;5068697;28;20047;-58
2023/10/07 04:15:18;;;;;;;34.25;22.13;;;;;;;14.57;100.00;101965.41;5070701;28;20040;-58
2023/10/07 04:17:45;;;;;;;29.83;22.48;;;;;;;14.57;100.00;101962.72;5069553;28;20031;-58
2023/10/07 04:20:22;;;;;;;31.15;22.13;;;;;;;14.56;100.00;101968.16;5070706;28;20082;-58
2023/10/07 04:22:57;;;;;;;29.08;22.13;;;;;;;14.58;100.00;101961.75;5071067;28;20487;-58
2023/10/07 04:25:24;;;;;;;28.63;22.45;;;;;;;14.60;100.00;101977.75;5071019;28;20020;-58
2023/10/07 04:27:53;;;;;;;27.98;21.70;;;;;;;14.50;100.00;101950.63;5067173;28;20027;-58
2023/10/07 04:30:28;;;;;;;27.67;21.95;;;;;;;14.52;100.00;101968.34;5070542;28;20020;-58
2023/10/07 04:33:00;;;;;;;31.25;23.05;;;;;;;14.51;100.00;101963.97;5066747;28;20048;-58
2023/10/07 04:35:27;;;;;;;27.90;22.13;;;;;;;14.55;100.00;101972.66;5071598;28;20114;-58
2023/10/07 04:37:59;;;;;;;28.65;21.80;;;;;;;14.52;100.00;101972.84;5068650;28;20025;-58
2023/10/07 04:43:25;;;;;;;28.05;19.77;;;;;;;14.57;100.00;101984.16;5070397;28;20032;-58
2023/10/07 04:45:51;;;;;;;28.65;20.60;;;;;;;14.58;100.00;101990.38;5067417;28;21143;-58
2023/10/07 04:51:25;;;;;;;27.63;20.27;;;;;;;14.57;100.00;101992.19;5015451;28;20343;-58
2023/10/07 04:53:57;;;;;;;27.83;19.75;;;;;;;14.54;100.00;101979.00;5061345;28;20075;-58
2023/10/07 04:56:25;;;;;;;30.17;20.33;;;;;;;14.55;100.00;101991.41;5072220;28;20047;-58
2023/10/07 04:58:53;;;;;;;24.48;19.20;;;;;;;14.55;100.00;101983.38;5069237;28;20032;-58
2023/10/07 05:01:30;;;;;;;25.73;18.30;;;;;;;14.55;100.00;101988.72;5069005;28;20048;-58
2023/10/07 05:03:56;;;;;;;26.73;17.40;;;;;;;14.57;100.00;101989.50;5067620;28;20068;-58
2023/10/07 05:06:25;;;;;;;26.42;18.20;;;;;;;14.54;100.00;101979.84;5066863;28;20028;-58
2023/10/07 05:08:50;;;;;;;25.67;17.30;;;;;;;14.54;100.00;101987.88;5067038;28;20021;-58
2023/10/07 05:11:19;;;;;;;24.38;17.20;;;;;;;14.58;100.00;101985.00;5066017;28;20484;-58
2023/10/07 05:13:48;;;;;;;24.10;16.88;;;;;;;14.60;100.00;101985.78;5069501;28;20033;-58
2023/10/07 05:16:14;;;;;;;21.88;15.90;;;;;;;14.57;100.00;101994.84;5065358;28;20570;-58
2023/10/07 05:18:40;;;;;;;23.25;16.55;;;;;;;14.59;100.00;101997.44;5069586;28;20024;-58
2023/10/07 05:21:06;;;;;;;22.67;15.85;;;;;;;14.56;100.00;101984.22;5064429;28;20024;-59
2023/10/07 05:23:33;;;;;;;21.10;16.90;;;;;;;14.59;100.00;101992.06;5070197;28;20054;-58
2023/10/07 05:26:03;;;;;;;23.38;16.23;;;;;;;14.54;100.00;101985.19;5067519;28;20098;-58
2023/10/07 05:28:30;;;;;;;;;;;;;;;14.69;100.00;101994.09;5070207;28;20074;-58
2023/10/07 05:31:00;;;;;;;23.33;15.13;;;;;;;14.57;100.00;101984.16;5069650;28;20000;-58
2023/10/07 05:33:28;;;;;;;24.17;16.75;;;;;;;14.59;100.00;101974.22;5069531;28;20047;-58
2023/10/07 05:36:21;;;;;;;20.20;15.02;;;;;;;14.65;100.00;101972.97;5070263;28;20027;-58
2023/10/07 05:38:47;;;;;;;21.25;14.93;;;;;;;14.63;100.00;101969.53;5068417;28;20032;-58
2023/10/07 05:41:17;;;;;;;23.35;15.77;;;;;;;14.64;100.00;101976.59;5069902;28;20070;-58
2023/10/07 05:43:51;;;;;;;23.80;15.10;;;;;;;14.59;100.00;101978.69;5070013;28;20433;-58
2023/10/07 05:46:20;;;;;;;18.90;14.98;;;;;;;14.65;100.00;101978.34;5070525;28;20046;-58
2023/10/07 05:48:51;;;;;;;25.08;15.23;;;;;;;14.62;100.00;101987.41;5074145;28;20032;-58
2023/10/07 05:51:16;;;;;;;23.15;14.70;;;;;;;14.67;100.00;101990.66;5071536;28;20040;-58
2023/10/07 05:53:45;;;;;;;15.40;7.18;;;;;;;14.69;100.00;101994.09;5073149;28;20018;-58
2023/10/07 05:56:10;;;;;;;21.33;13.18;;;;;;;14.66;100.00;101991.59;5072287;28;20495;-58
2023/10/07 05:58:37;;;;;;;17.83;14.57;;;;;;;14.68;100.00;101992.38;5072172;28;20028;-58
2023/10/07 06:01:03;;;;;;;27.85;14.68;;;;;;;14.66;100.00;101988.94;5073048;28;20466;-58
2023/10/07 06:03:30;;;;;;;22.23;13.82;;;;;;;14.68;100.00;101988.84;5073058;28;20037;-59
2023/10/07 06:05:59;;;;;;;20.95;12.88;;;;;;;14.68;100.00;101994.22;5071723;28;20024;-58
2023/10/07 06:08:29;;;;;;;22.50;13.77;;;;;;;14.72;100.00;102001.09;5071706;28;20028;-58
2023/10/07 06:10:56;;;;;;;22.77;13.95;;;;;;;14.71;100.00;101994.88;5071967;28;20028;-58
2023/10/07 06:13:22;;;;;;;20.92;14.60;;;;;;;14.72;100.00;101993.91;5072710;28;20383;-58
2023/10/07 06:15:51;;;;;;;21.25;14.23;;;;;;;14.73;100.00;102005.47;5071253;28;20511;-58
2023/10/07 06:18:20;;;;;;;20.70;13.82;;;;;;;14.75;100.00;102003.56;5071023;28;20032;-58
2023/10/07 06:20:46;;;;;;;24.80;13.90;;;;;;;14.69;100.00;101993.25;5069549;28;20035;-59
2023/10/07 06:23:14;;;;;;;22.77;14.07;;;;;;;14.70;100.00;102001.16;5071667;28;20028;-58
2023/10/07 06:25:50;;;;;;;23.48;14.73;;;;;;;14.72;100.00;101996.59;5054799;28;20035;-58
2023/10/07 06:29:06;;;;;;;19.25;13.60;;;;;;;14.73;100.00;102011.69;5072926;28;20031;-58
2023/10/07 06:31:13;;;;;;;21.27;13.80;;;;;;;14.72;100.00;102003.75;5068824;28;20040;-59
2023/10/07 06:33:42;;;;;;;20.45;13.90;;;;;;;14.75;100.00;102017.81;5071214;28;20032;-58
2023/10/07 06:36:10;;;;;;;13.20;7.25;;;;;;;14.76;100.00;102010.63;5071555;28;20553;-58
2023/10/07 06:38:45;;;;;;;21.73;13.13;;;;;;;14.72;100.00;102019.84;5071157;28;20027;-58
2023/10/07 06:41:11;;;;;;;19.20;13.90;;;;;;;14.73;100.00;102022.41;5072257;28;20024;-58
2023/10/07 06:43:49;;;;;;;19.02;12.60;;;;;;;14.73;100.00;102025.06;5072752;28;20020;-58
2023/10/07 06:46:21;;;;;;;20.42;12.90;;;;;;;14.75;100.00;102020.50;5072184;28;20017;-59
2023/10/07 06:48:50;;;;;;;19.73;13.23;;;;;;;14.76;100.00;102016.00;5071325;28;20448;-58
2023/10/07 06:51:16;;;;;;;16.30;12.10;;;;;;;14.79;100.00;102020.31;5072111;28;20079;-58
2023/10/07 06:53:44;;;;;;;16.30;13.27;;;;;;;14.81;100.00;102027.28;5072330;28;20104;-58
2023/10/07 06:56:23;;;;;;;20.05;12.75;;;;;;;14.80;100.00;102033.63;5072517;28;20181;-58
2023/10/07 06:58:53;;;;;;;22.48;13.30;;;;;;;14.89;100.00;102032.19;5071753;28;20479;-58
2023/10/07 07:01:35;;;;;;;20.73;13.25;;;;;;;14.89;100.00;102034.88;5071824;28;20415;-59
2023/10/07 07:04:09;;;;;;;22.05;12.45;;;;;;;14.88;100.00;102035.81;5071630;28;20054;-58
2023/10/07 07:06:42;;;;;;;20.92;12.82;;;;;;;14.92;100.00;102040.88;5071053;28;20028;-59
2023/10/07 07:11:58;;;;;;;17.77;11.70;;;;;;;14.92;100.00;102019.44;5072206;28;20530;-58
2023/10/07 07:14:28;;;;;;;16.23;11.90;;;;;;;14.94;100.00;102036.31;5071709;28;20025;-58
2023/10/07 07:16:56;;;;;;;18.02;12.07;;;;;;;14.92;100.00;102035.53;5071703;28;20094;-58
2023/10/07 07:19:23;;;;;;;18.85;12.02;;;;;;;14.92;100.00;102040.88;5070553;28;20376;-58
2023/10/07 07:21:49;;;;;;;19.42;12.38;;;;;;;15.01;100.00;102042.13;5070344;28;20135;-58
2023/10/07 07:24:18;;;;;;;18.75;12.07;;;;;;;15.05;100.00;102045.47;5071222;28;20024;-58
2023/10/07 07:26:51;;;;;;;;;;;;;;;15.16;100.00;102051.88;5072168;28;20024;-58
2023/10/07 07:29:23;;;;;;;18.45;12.05;;;;;;;15.12;100.00;102052.19;5069066;28;20369;-58
2023/10/07 07:31:49;;;;;;;19.00;12.00;;;;;;;15.04;100.00;102039.25;5071546;28;20052;-59
2023/10/07 07:34:26;;;;;;;19.08;12.23;;;;;;;15.13;100.00;102059.25;5071020;28;20068;-58
2023/10/07 07:37:04;;;;;;;20.75;12.43;;;;;;;15.16;100.00;102051.88;5070670;28;20410;-58
2023/10/07 07:39:32;;;;;;;17.02;11.68;;;;;;;15.17;100.00;102058.94;5070512;28;20475;-59
2023/10/07 07:42:15;;;;;;;20.98;11.75;;;;;;;15.22;100.00;102053.31;5071255;28;20060;-59
2023/10/07 07:44:55;;;;;;;19.63;11.07;;;;;;;15.18;100.00;102057.16;5071267;28;20069;-58
2023/10/07 07:47:21;;;;;;;18.48;11.70;;;;;;;15.20;100.00;102060.56;5071575;28;20086;-58
2023/10/07 07:49:48;;;;;;;19.48;10.75;;;;;;;15.25;100.00;102057.63;5067306;28;20020;-59
2023/10/07 07:52:15;;;;;;;20.65;11.90;;;;;;;15.30;100.00;102047.47;5071300;28;20028;-58
2023/10/07 07:54:44;;;;;;;15.43;10.57;;;;;;;15.34;100.00;102060.56;5069383;28;20024;-58
2023/10/07 07:57:12;;;;;;;18.95;11.65;;;;;;;15.34;100.00;102049.84;5070030;28;20471;-59
2023/10/07 07:59:38;;;;;;;17.17;10.27;;;;;;;15.36;100.00;102055.97;5070531;28;20024;-59
2023/10/07 08:02:12;;;;;;;18.38;10.90;;;;;;;15.40;100.00;102057.50;5071096;28;20444;-58
2023/10/07 08:04:48;;;;;;;15.55;10.70;;;;;;;15.42;100.00;102068.13;5070705;28;20418;-59
2023/10/07 08:09:50;;;;;;;18.10;11.77;;;;;;;15.55;100.00;102069.06;5068898;28;20462;-59
2023/10/07 08:12:38;;;;;;;16.17;10.82;;;;;;;15.69;100.00;102078.94;5069142;28;20032;-59
2023/10/07 08:17:40;;;;;;;22.70;10.80;;;;;;;15.93;100.00;102078.28;5071262;28;20506;-58
2023/10/07 08:20:13;;;;;;;15.95;10.35;;;;;;;15.97;100.00;102077.09;5068970;28;20028;-58
2023/10/07 08:22:45;;;;;;;16.63;10.60;;;;;;;16.16;100.00;102088.34;5069601;28;20042;-58
2023/10/07 08:25:37;;;;;;;21.20;10.13;;;;;;;16.22;100.00;102087.09;5070377;28;20020;-58
2023/10/07 08:28:18;;;;;;;18.08;11.13;;;;;;;16.27;99.34;102083.13;5069941;28;20059;-59
2023/10/07 08:30:46;;;;;;;18.33;10.30;;;;;;;16.35;98.91;102086.16;5085226;28;20053;-58
2023/10/07 08:33:14;;;;;;;18.23;10.23;;;;;;;16.38;98.53;102079.69;5069295;28;20027;-59
2023/10/07 08:35:47;;;;;;;19.58;9.80;;;;;;;16.33;98.83;102071.97;5069198;28;20468;-59
2023/10/07 08:38:29;;;;;;;21.55;11.18;;;;;;;16.38;99.04;102078.84;5068376;28;20103;-58
2023/10/07 08:41:04;;;;;;;17.70;10.68;;;;;;;16.38;98.49;102074.31;5069395;28;20044;-59
2023/10/07 08:44:03;;;;;;;19.48;10.23;;;;;;;16.43;97.95;102076.72;5070260;28;20107;-59
2023/10/07 08:46:19;;;;;;;23.90;11.35;;;;;;;16.45;97.67;102074.78;5069800;28;20336;-59
2023/10/07 08:48:58;;;;;;;16.98;9.85;;;;;;;16.47;97.78;102079.09;5070097;28;20107;-58
2023/10/07 08:51:24;;;;;;;;;;;;;;;16.60;97.69;102086.31;5070598;28;20020;-60
2023/10/07 08:53:56;;;;;;;20.05;11.15;;;;;;;16.63;97.56;102083.41;5069837;28;19928;-60
2023/10/07 08:56:27;;;;;;;15.65;10.77;;;;;;;16.68;95.95;102074.06;5068144;28;20074;-59
2023/10/07 08:58:53;;;;;;;15.77;9.27;;;;;;;16.73;96.28;102073.75;5068556;28;20036;-58
2023/10/07 09:01:24;;;;;;;19.85;10.45;;;;;;;16.76;95.21;102073.56;5102872;28;20085;-58
2023/10/07 09:03:52;;;;;;;16.75;9.23;;;;;;;16.88;94.84;102063.78;5068937;28;20017;-59
2023/10/07 09:06:19;;;;;;;19.58;9.70;;;;;;;16.94;94.57;102061.53;5070278;28;20108;-59
2023/10/07 09:08:45;;;;;;;18.67;9.77;;;;;;;17.03;93.05;102068.94;5068169;28;20077;-59
2023/10/07 09:11:18;;;;;;;18.20;9.65;;;;;;;17.20;92.94;102069.56;5068584;28;20036;-59
2023/10/07 09:13:43;;;;;;;18.20;10.00;;;;;;;17.26;91.67;102074.50;5069781;28;20024;-59
2023/10/07 09:16:12;;;;;;;18.23;9.65;;;;;;;17.32;90.61;102071.38;5068783;28;20093;-59
2023/10/07 09:18:45;;;;;;;11.93;8.53;;;;;;;17.34;89.94;102055.13;5069738;28;20440;-59
2023/10/07 09:21:22;;;;;;;13.73;7.72;;;;;;;17.44;89.98;102056.16;5071243;28;20039;-59
2023/10/07 09:23:59;;;;;;;15.38;9.13;;;;;;;17.45;89.98;102050.69;5072310;28;20024;-59
2023/10/07 09:26:34;;;;;;;11.98;7.35;;;;;;;17.56;88.79;102041.84;5073683;28;20329;-59
2023/10/07 09:29:14;;;;;;;17.20;7.68;;;;;;;17.56;88.53;102032.88;5073240;28;20032;-59
2023/10/07 09:31:41;;;;;;;19.05;7.95;;;;;;;17.70;87.27;102055.09;5074241;28;20082;-59
2023/10/07 09:34:10;;;;;;;16.73;8.13;;;;;;;17.78;85.72;102059.13;5073450;28;20032;-59
2023/10/07 09:36:46;;;;;;;13.98;7.38;;;;;;;17.75;85.66;102044.03;5071507;28;20032;-59
2023/10/07 09:41:39;;;;;;;15.88;8.18;;;;;;;17.95;85.11;102063.25;5073956;28;20028;-59
2023/10/07 09:44:21;;;;;;;14.20;7.95;;;;;;;18.01;85.69;102055.56;5073352;28;20074;-59
2023/10/07 09:46:52;;;;;;;11.00;7.30;;;;;;;18.12;83.60;102052.94;5073810;28;20471;-59
2023/10/07 09:49:19;;;;;;;12.82;6.65;;;;;;;18.24;83.78;102069.13;5078887;28;20028;-59
2023/10/07 09:51:47;;;;;;;14.88;7.45;;;;;;;18.37;82.68;102065.38;5073746;28;20020;-59
2023/10/07 09:54:22;;;;;;;15.32;7.53;;;;;;;18.42;83.56;102062.34;5072498;28;20032;-59
2023/10/07 09:57:07;;;;;;;15.00;7.35;;;;;;;18.53;82.11;102054.28;5074999;28;20051;-59
2023/10/07 09:59:44;;;;;;;12.75;6.95;;;;;;;18.51;81.18;102050.00;5069493;28;20028;-59
2023/10/07 10:02:42;;;;;;;13.10;7.05;;;;;;;18.58;81.48;102053.91;5073746;28;20074;-59
2023/10/07 10:05:37;;;;;;;13.65;6.53;;;;;;;18.75;82.15;102045.41;5073910;28;20477;-59
2023/10/07 10:08:27;;;;;;;14.25;6.82;;;;;;;18.99;80.77;102048.00;5071137;28;20029;-59
2023/10/07 10:10:58;;;;;;;22.60;7.00;;;;;;;19.16;78.67;102062.84;5072980;28;20059;-59
2023/10/07 10:16:15;;;;;;;14.75;6.75;;;;;;;19.31;75.12;102063.44;5072631;28;20105;-59
2023/10/07 10:18:45;;;;;;;11.02;6.22;;;;;;;19.55;74.91;102062.44;5071256;28;20111;-59
2023/10/07 10:21:13;;;;;;;11.07;6.18;;;;;;;19.79;74.88;102076.63;5073199;28;20051;-59
2023/10/07 10:23:40;;;;;;;10.95;5.80;;;;;;;19.82;73.22;102075.53;5072019;28;20032;-59
2023/10/07 10:26:20;;;;;;;13.27;5.95;;;;;;;19.92;73.02;102077.34;5071514;28;20479;-59
2023/10/07 10:28:59;;;;;;;11.15;5.68;;;;;;;20.23;72.60;102077.47;5069272;28;20134;-59
2023/10/07 10:31:32;;;;;;;10.68;5.95;;;;;;;20.26;70.25;102084.44;5072780;28;20373;-59
2023/10/07 10:34:05;;;;;;;13.70;6.32;;;;;;;20.45;69.50;102078.34;5072413;28;20393;-59
2023/10/07 10:36:35;;;;;;;11.43;5.55;;;;;;;20.62;69.16;102089.47;5071957;28;20449;-59
2023/10/07 10:39:05;;;;;;;9.10;5.78;;;;;;;20.94;68.02;102093.94;5071170;28;20532;-59
2023/10/07 10:41:32;;;;;;;13.07;5.78;;;;;;;21.10;67.24;102101.56;5072230;28;20087;-59
2023/10/07 10:44:10;;;;;;;12.60;5.60;;;;;;;21.17;66.83;102101.88;5071964;28;20032;-59
2023/10/07 10:46:50;;;;;;;11.23;5.35;;;;;;;21.49;66.52;102099.88;5072464;28;20052;-59
2023/10/07 10:49:18;;;;;;;10.20;5.63;;;;;;;21.69;65.28;102078.28;5070744;28;20143;-59
2023/10/07 10:51:45;;;;;;;10.13;5.35;;;;;;;21.95;62.73;102092.16;5085130;28;20056;-60
2023/10/07 10:54:15;;;;;;;13.32;5.63;;;;;;;22.04;61.89;102077.78;5085691;28;20033;-59
2023/10/07 10:56:47;;;;;;;10.07;5.75;;;;;;;22.47;62.24;102083.78;5073305;28;20028;-60
2023/10/07 10:59:16;;;;;;;9.38;5.32;;;;;;;22.86;59.11;102092.72;5072176;28;20028;-59
2023/10/07 11:01:44;;;;;;;12.05;5.40;;;;;;;23.21;58.94;102080.34;5069952;28;20043;-59
2023/10/07 11:04:12;;;;;;;11.15;5.38;;;;;;;23.53;57.13;102061.75;5074333;28;20460;-59
2023/10/07 11:06:39;;;;;;;12.52;5.82;;;;;;;23.99;56.11;102068.03;5071476;28;20028;-59
2023/10/07 11:09:05;;;;;;;10.57;5.95;;;;;;;24.23;53.33;102071.97;5071451;28;20040;-59
2023/10/07 11:11:31;;;;;;;15.35;6.20;;;;;;;24.22;53.25;102073.84;5068106;28;20759;-59
2023/10/07 11:13:56;;;;;;;10.63;5.30;;;;;;;24.31;53.03;102071.19;5076347;28;20033;-60
2023/10/07 11:16:26;;;;;;;14.27;5.63;;;;;;;24.13;53.53;102066.63;5071386;28;20079;-60
2023/10/07 11:18:54;;;;;;;10.68;5.03;;;;;;;24.36;52.81;102077.88;5070334;28;20433;-60
2023/10/07 11:21:21;;;;;;;8.65;5.15;;;;;;;24.69;52.82;102072.72;5070558;28;20498;-60
2023/10/07 11:23:54;;;;;;;13.52;5.28;;;;;;;25.12;51.45;102074.53;5069636;28;20027;-64
2023/10/07 11:26:26;;;;;;;10.88;5.30;;;;;;;25.29;50.46;102070.00;5070478;28;20020;-64
2023/10/07 11:28:52;;;;;;;9.57;4.50;;;;;;;25.24;50.84;102060.66;5069939;28;20554;-63
2023/10/07 11:31:37;;;;;;;12.73;5.15;;;;;;;25.93;51.34;102062.22;5071114;28;20039;-62
2023/10/07 11:34:05;;;;;;;13.05;5.20;;;;;;;26.00;48.20;102060.56;5070239;28;20335;-64
2023/10/07 11:36:45;;;;;;;16.07;5.90;;;;;;;26.01;48.45;102050.50;5068599;28;20024;-68
2023/10/07 11:39:13;;;;;;;10.50;4.60;;;;;;;26.12;48.64;102055.63;5070185;28;20441;-69
2023/10/07 11:41:39;;;;;;;;;;;;;;;27.30;48.62;102053.22;5071152;28;20415;-66
2023/10/07 11:44:04;;;;;;;8.77;5.35;;;;;;;26.84;45.28;102049.44;5069608;28;19932;-66
2023/10/07 11:46:30;;;;;;;12.90;5.45;;;;;;;27.00;44.76;102046.63;5068497;28;20029;-63
2023/10/07 11:48:56;;;;;;;10.50;4.88;;;;;;;27.41;46.17;102051.97;5070493;28;20096;-65
2023/10/07 11:51:27;;;;;;;10.15;4.80;;;;;;;27.61;45.51;102050.50;5073515;28;20035;-64
2023/10/07 11:53:55;;;;;;;9.52;4.80;;;;;;;27.77;44.13;102052.28;5068772;28;20483;-66
2023/10/07 11:56:23;;;;;;;13.85;5.50;;;;;;;27.71;43.56;102058.47;5070885;28;20154;-63
2023/10/07 11:58:49;;;;;;;10.68;4.60;;;;;;;27.71;44.12;102058.47;5069841;28;20112;-61
2023/10/07 12:01:20;;;;;;;6.63;4.47;;;;;;;28.06;44.06;102048.88;5069658;28;20020;-61
2023/10/07 12:03:48;;;;;;;12.20;5.20;;;;;;;28.00;42.91;102046.00;5071028;28;20570;-60
2023/10/07 12:06:14;;;;;;;10.68;5.05;;;;;;;28.07;42.14;102046.97;5067573;28;20029;-69
2023/10/07 12:08:39;;;;;;;9.07;4.93;;;;;;;28.18;43.66;102043.81;5071242;28;20089;-70
2023/10/07 12:11:05;;;;;;;12.57;4.72;;;;;;;28.53;41.80;102050.53;5068043;28;20068;-74
2023/10/07 12:13:31;;;;;;;10.52;5.38;;;;;;;28.95;41.36;102054.53;5071458;28;20107;-78
2023/10/07 12:15:57;;;;;;;8.23;4.50;;;;;;;29.05;41.13;102046.06;5069795;28;20044;-69
2023/10/07 12:18:22;;;;;;;13.98;5.40;;;;;;;28.96;40.38;102055.38;5067355;28;20375;-74